createdAt,value
2023-01-13T00:00:41.232Z,99.99
2023-01-13T00:01:40.892Z,99.99
2023-01-13T00:02:41.027Z,99.99
2023-01-13T00:03:40.863Z,99.99
2023-01-13T00:04:40.929Z,99.99
2023-01-13T00:05:40.944Z,99.99
2023-01-13T00:06:40.853Z,99.99
2023-01-13T00:07:41.020Z,99.99
2023-01-13T00:08:40.782Z,99.99
2023-01-13T00:09:41.047Z,99.99
2023-01-13T00:10:41.491Z,99.99
2023-01-13T00:11:40.777Z,99.99
2023-01-13T00:12:40.765Z,99.99
2023-01-13T00:13:40.768Z,99.99
2023-01-13T00:14:40.764Z,99.99
2023-01-13T00:15:40.765Z,99.99
2023-01-13T00:16:40.742Z,99.99
2023-01-13T00:17:40.680Z,99.99
2023-01-13T00:18:40.679Z,99.99
2023-01-13T00:19:40.792Z,99.99
2023-01-13T00:20:40.671Z,99.99
2023-01-13T00:21:40.675Z,99.99
2023-01-13T00:22:40.643Z,99.99
2023-01-13T00:23:40.620Z,99.99
2023-01-13T00:24:40.617Z,99.99
2023-01-13T00:25:40.593Z,99.91
2023-01-13T00:26:40.644Z,99.91
2023-01-13T00:27:40.716Z,99.99
2023-01-13T00:28:40.631Z,99.85
2023-01-13T00:29:40.551Z,99.75
2023-01-13T00:30:40.665Z,99.50
2023-01-13T00:31:40.606Z,99.19
2023-01-13T00:32:40.630Z,98.99
2023-01-13T00:33:40.529Z,99.29
2023-01-13T00:34:40.525Z,99.19
2023-01-13T00:35:40.522Z,99.19
2023-01-13T00:36:40.510Z,99.75
2023-01-13T00:37:40.476Z,99.85
2023-01-13T00:38:40.483Z,99.03
2023-01-13T00:39:44.307Z,98.83
2023-01-13T00:40:40.433Z,98.42
2023-01-13T00:41:40.455Z,98.93
2023-01-13T00:42:40.552Z,98.72
2023-01-13T00:43:40.420Z,98.11
2023-01-13T00:44:40.415Z,98.52
2023-01-13T00:45:40.524Z,97.70
2023-01-13T00:46:40.494Z,98.42
2023-01-13T00:47:40.458Z,98.72
2023-01-13T00:48:40.385Z,97.80
2023-01-13T00:49:40.367Z,96.47
2023-01-13T00:50:40.430Z,96.67
2023-01-13T00:51:40.330Z,95.34
2023-01-13T00:52:42.166Z,94.42
2023-01-13T00:53:40.313Z,94.21
2023-01-13T00:54:40.306Z,95.03
2023-01-13T00:55:40.331Z,96.00
2023-01-13T00:56:41.427Z,94.67
2023-01-13T00:57:40.291Z,94.46
2023-01-13T00:58:40.898Z,94.77
2023-01-13T00:59:40.565Z,95.18
2023-01-13T01:00:40.666Z,94.15
2023-01-13T01:01:40.676Z,94.36
2023-01-13T01:02:40.412Z,95.07
2023-01-13T01:03:40.221Z,94.87
2023-01-13T01:04:40.506Z,95.59
2023-01-13T01:05:40.393Z,95.90
2023-01-13T01:06:40.472Z,95.49
2023-01-13T01:07:40.441Z,95.18
2023-01-13T01:08:40.182Z,95.53
2023-01-13T01:09:40.242Z,95.12
2023-01-13T01:10:40.137Z,95.12
2023-01-13T01:11:40.169Z,94.36
2023-01-13T01:12:40.176Z,95.12
2023-01-13T01:13:40.180Z,94.71
2023-01-13T01:14:40.207Z,94.71
2023-01-13T01:15:40.099Z,94.71
2023-01-13T01:16:40.177Z,94.61
2023-01-13T01:17:40.162Z,94.51
2023-01-13T01:18:40.114Z,95.12
2023-01-13T01:19:40.057Z,94.40
2023-01-13T01:20:40.038Z,94.71
2023-01-13T01:21:40.052Z,94.85
2023-01-13T01:22:40.399Z,94.34
2023-01-13T01:23:40.005Z,94.24
2023-01-13T01:24:40.045Z,94.24
2023-01-13T01:25:39.971Z,94.96
2023-01-13T01:26:39.980Z,95.17
2023-01-13T01:27:39.963Z,95.27
2023-01-13T01:28:39.977Z,95.17
2023-01-13T01:29:39.939Z,95.62
2023-01-13T01:30:39.937Z,95.10
2023-01-13T01:31:39.991Z,94.90
2023-01-13T01:32:39.904Z,94.18
2023-01-13T01:33:39.913Z,93.42
2023-01-13T01:34:39.915Z,94.04
2023-01-13T01:35:40.423Z,94.80
2023-01-13T01:36:39.965Z,94.59
2023-01-13T01:37:39.856Z,94.90
2023-01-13T01:38:39.846Z,94.80
2023-01-13T01:39:39.896Z,94.49
2023-01-13T01:40:39.820Z,94.08
2023-01-13T01:41:39.812Z,94.39
2023-01-13T01:42:39.808Z,94.59
2023-01-13T01:43:39.833Z,94.95
2023-01-13T01:44:39.788Z,94.95
2023-01-13T01:45:39.825Z,95.05
2023-01-13T01:46:40.034Z,95.05
2023-01-13T01:47:39.822Z,95.25
2023-01-13T01:48:39.741Z,94.84
2023-01-13T01:49:39.745Z,95.15
2023-01-13T01:50:39.724Z,95.15
2023-01-13T01:51:39.709Z,95.15
2023-01-13T01:52:39.707Z,95.46
2023-01-13T01:53:39.708Z,95.15
2023-01-13T01:54:39.704Z,95.56
2023-01-13T01:55:39.673Z,95.77
2023-01-13T01:56:39.663Z,95.67
2023-01-13T01:57:39.667Z,95.77
2023-01-13T01:58:39.641Z,95.77
2023-01-13T01:59:39.658Z,96.08
2023-01-13T02:00:39.663Z,96.69
2023-01-13T02:01:39.907Z,96.69
2023-01-13T02:02:39.651Z,96.69
2023-01-13T02:03:39.587Z,96.59
2023-01-13T02:04:39.586Z,96.69
2023-01-13T02:05:40.141Z,96.59
2023-01-13T02:06:39.552Z,96.59
2023-01-13T02:07:39.617Z,96.18
2023-01-13T02:08:39.630Z,96.08
2023-01-13T02:09:39.540Z,96.18
2023-01-13T02:10:39.555Z,96.08
2023-01-13T02:11:39.533Z,96.08
2023-01-13T02:12:39.480Z,96.18
2023-01-13T02:13:39.490Z,95.97
2023-01-13T02:14:39.477Z,96.18
2023-01-13T02:15:39.493Z,95.97
2023-01-13T02:16:39.463Z,96.43
2023-01-13T02:17:39.493Z,96.53
2023-01-13T02:18:39.598Z,96.22
2023-01-13T02:19:39.651Z,95.92
2023-01-13T02:20:41.235Z,95.40
2023-01-13T02:21:39.435Z,95.50
2023-01-13T02:22:40.562Z,95.30
2023-01-13T02:23:39.451Z,95.09
2023-01-13T02:24:39.375Z,94.89
2023-01-13T02:25:39.396Z,94.99
2023-01-13T02:26:39.351Z,94.78
2023-01-13T02:27:39.453Z,94.68
2023-01-13T02:28:39.319Z,94.89
2023-01-13T02:29:39.403Z,94.48
2023-01-13T02:30:39.355Z,93.96
2023-01-13T02:31:39.563Z,93.55
2023-01-13T02:32:39.442Z,93.44
2023-01-13T02:33:39.267Z,93.55
2023-01-13T02:34:39.310Z,93.55
2023-01-13T02:35:39.375Z,93.76
2023-01-13T02:36:39.311Z,93.35
2023-01-13T02:37:39.239Z,93.24
2023-01-13T02:38:39.232Z,93.65
2023-01-13T02:39:39.230Z,93.55
2023-01-13T02:40:39.206Z,93.49
2023-01-13T02:41:39.289Z,93.39
2023-01-13T02:42:39.181Z,92.63
2023-01-13T02:43:39.198Z,92.52
2023-01-13T02:44:39.195Z,92.73
2023-01-13T02:45:39.241Z,92.52
2023-01-13T02:46:39.141Z,92.11
2023-01-13T02:47:39.124Z,92.01
2023-01-13T02:48:39.159Z,92.52
2023-01-13T02:49:39.109Z,92.21
2023-01-13T02:50:39.102Z,92.52
2023-01-13T02:51:39.211Z,92.52
2023-01-13T02:52:39.106Z,92.52
2023-01-13T02:53:39.151Z,92.63
2023-01-13T02:54:39.190Z,92.63
2023-01-13T02:55:39.972Z,93.04
2023-01-13T02:56:39.053Z,93.08
2023-01-13T02:57:39.076Z,93.29
2023-01-13T02:58:39.010Z,93.70
2023-01-13T02:59:39.055Z,93.90
2023-01-13T03:00:39.152Z,94.01
2023-01-13T03:01:39.063Z,94.01
2023-01-13T03:02:39.109Z,93.70
2023-01-13T03:03:39.006Z,93.29
2023-01-13T03:04:39.008Z,93.49
2023-01-13T03:05:39.013Z,93.18
2023-01-13T03:06:39.273Z,92.87
2023-01-13T03:07:38.953Z,92.97
2023-01-13T03:08:39.837Z,92.97
2023-01-13T03:09:38.950Z,93.08
2023-01-13T03:10:38.915Z,92.97
2023-01-13T03:11:39.086Z,93.29
2023-01-13T03:12:38.942Z,93.29
2023-01-13T03:13:39.077Z,93.18
2023-01-13T03:14:38.854Z,93.08
2023-01-13T03:15:38.899Z,93.29
2023-01-13T03:16:38.856Z,93.18
2023-01-13T03:17:38.844Z,93.59
2023-01-13T03:18:38.840Z,93.39
2023-01-13T03:19:38.803Z,92.77
2023-01-13T03:20:38.823Z,92.93
2023-01-13T03:21:38.854Z,92.87
2023-01-13T03:22:38.810Z,92.63
2023-01-13T03:23:38.780Z,92.73
2023-01-13T03:24:38.772Z,92.42
2023-01-13T03:25:38.764Z,92.32
2023-01-13T03:26:38.767Z,92.73
2023-01-13T03:27:38.731Z,92.73
2023-01-13T03:28:38.703Z,92.93
2023-01-13T03:29:38.717Z,92.83
2023-01-13T03:30:38.835Z,92.32
2023-01-13T03:31:38.836Z,92.01
2023-01-13T03:32:38.685Z,92.52
2023-01-13T03:33:38.676Z,92.93
2023-01-13T03:34:38.688Z,92.97
2023-01-13T03:35:38.639Z,92.36
2023-01-13T03:36:38.800Z,92.11
2023-01-13T03:37:38.637Z,91.91
2023-01-13T03:38:38.745Z,92.11
2023-01-13T03:39:38.597Z,92.21
2023-01-13T03:40:38.652Z,92.25
2023-01-13T03:41:38.590Z,92.11
2023-01-13T03:42:38.571Z,92.57
2023-01-13T03:43:38.612Z,92.16
2023-01-13T03:44:38.543Z,92.05
2023-01-13T03:45:38.606Z,91.85
2023-01-13T03:46:38.531Z,91.85
2023-01-13T03:47:38.523Z,91.95
2023-01-13T03:48:38.525Z,92.05
2023-01-13T03:49:38.501Z,91.64
2023-01-13T03:50:38.476Z,91.95
2023-01-13T03:51:38.515Z,91.74
2023-01-13T03:52:38.463Z,91.74
2023-01-13T03:53:38.644Z,91.44
2023-01-13T03:54:38.467Z,91.23
2023-01-13T03:55:38.437Z,91.13
2023-01-13T03:56:38.437Z,91.23
2023-01-13T03:57:38.566Z,91.64
2023-01-13T03:58:38.393Z,91.99
2023-01-13T03:59:38.403Z,90.75
2023-01-13T04:00:38.375Z,90.61
2023-01-13T04:02:50.203Z,89.79
2023-01-13T04:03:51.516Z,89.79
2023-01-13T04:04:51.133Z,89.79
2023-01-13T04:05:51.134Z,90.30
2023-01-13T04:06:51.110Z,90.14
2023-01-13T04:07:51.266Z,90.14
2023-01-13T04:08:51.272Z,89.94
2023-01-13T04:09:51.325Z,90.14
2023-01-13T04:10:51.056Z,89.94
2023-01-13T04:11:52.562Z,89.52
2023-01-13T04:12:51.052Z,89.48
2023-01-13T04:13:51.070Z,90.14
2023-01-13T04:14:51.102Z,89.94
2023-01-13T04:15:51.278Z,90.03
2023-01-13T04:16:51.046Z,89.94
2023-01-13T04:17:51.068Z,89.94
2023-01-13T04:18:51.479Z,90.24
2023-01-13T04:19:51.046Z,90.24
2023-01-13T04:20:51.059Z,89.62
2023-01-13T04:21:50.945Z,89.28
2023-01-13T04:22:51.039Z,88.86
2023-01-13T04:23:52.011Z,88.86
2023-01-13T04:24:51.330Z,89.58
2023-01-13T04:25:51.060Z,89.28
2023-01-13T04:26:51.102Z,89.79
2023-01-13T04:27:50.977Z,89.89
2023-01-13T04:28:55.042Z,89.89
2023-01-13T04:29:50.865Z,89.79
2023-01-13T04:30:51.124Z,89.58
2023-01-13T04:31:50.856Z,90.09
2023-01-13T04:32:50.828Z,89.58
2023-01-13T04:33:50.844Z,89.89
2023-01-13T04:34:50.807Z,89.89
2023-01-13T04:35:50.823Z,90.20
2023-01-13T04:36:50.851Z,89.58
2023-01-13T04:37:50.811Z,89.58
2023-01-13T04:38:50.808Z,89.69
2023-01-13T04:39:50.929Z,89.69
2023-01-13T04:40:50.795Z,89.69
2023-01-13T04:41:50.737Z,90.00
2023-01-13T04:42:50.751Z,89.89
2023-01-13T04:43:50.733Z,89.79
2023-01-13T04:44:50.724Z,88.86
2023-01-13T04:45:50.788Z,88.96
2023-01-13T04:46:58.564Z,88.86
2023-01-13T04:47:50.683Z,88.31
2023-01-13T04:48:50.670Z,88.10
2023-01-13T04:49:50.700Z,88.10
2023-01-13T04:50:50.654Z,88.20
2023-01-13T04:51:50.990Z,88.10
2023-01-13T04:52:50.861Z,88.00
2023-01-13T04:53:50.607Z,88.10
2023-01-13T04:54:50.621Z,88.35
2023-01-13T04:55:50.583Z,88.24
2023-01-13T04:56:50.571Z,88.04
2023-01-13T04:57:51.186Z,88.96
2023-01-13T04:58:50.567Z,88.86
2023-01-13T04:59:50.557Z,88.86
2023-01-13T05:00:50.519Z,88.04
2023-01-13T05:01:50.653Z,87.90
2023-01-13T05:02:50.564Z,88.10
2023-01-13T05:03:50.541Z,87.69
2023-01-13T05:04:50.539Z,87.69
2023-01-13T05:05:50.469Z,87.69
2023-01-13T05:06:50.536Z,87.59
2023-01-13T05:07:50.469Z,88.00
2023-01-13T05:08:50.429Z,88.04
2023-01-13T05:09:50.436Z,88.45
2023-01-13T05:10:50.425Z,88.35
2023-01-13T05:11:50.410Z,88.66
2023-01-13T05:12:50.424Z,88.35
2023-01-13T05:13:50.394Z,88.24
2023-01-13T05:14:50.384Z,88.14
2023-01-13T05:15:50.417Z,87.94
2023-01-13T05:16:50.349Z,87.52
2023-01-13T05:17:50.411Z,88.24
2023-01-13T05:18:50.405Z,87.84
2023-01-13T05:19:50.328Z,87.63
2023-01-13T05:20:50.335Z,87.73
2023-01-13T05:21:50.325Z,87.52
2023-01-13T05:22:50.300Z,87.42
2023-01-13T05:23:50.303Z,87.42
2023-01-13T05:24:50.253Z,88.24
2023-01-13T05:25:50.285Z,86.77
2023-01-13T05:26:50.251Z,86.77
2023-01-13T05:27:50.254Z,86.97
2023-01-13T05:28:50.227Z,87.38
2023-01-13T05:29:50.225Z,87.73
2023-01-13T05:30:50.244Z,87.84
2023-01-13T05:31:50.262Z,88.04
2023-01-13T05:32:50.211Z,87.22
2023-01-13T05:33:50.169Z,87.12
2023-01-13T05:34:50.163Z,87.22
2023-01-13T05:35:50.160Z,87.42
2023-01-13T05:36:50.146Z,87.12
2023-01-13T05:37:50.131Z,86.70
2023-01-13T05:38:50.142Z,86.25
2023-01-13T05:39:50.128Z,86.91
2023-01-13T05:40:50.128Z,87.32
2023-01-13T05:41:50.098Z,87.01
2023-01-13T05:42:50.323Z,87.42
2023-01-13T05:43:50.107Z,87.22
2023-01-13T05:44:50.466Z,87.12
2023-01-13T05:45:50.168Z,87.01
2023-01-13T05:46:50.173Z,86.70
2023-01-13T05:47:50.017Z,86.70
2023-01-13T05:48:50.077Z,87.22
2023-01-13T05:49:50.017Z,87.22
2023-01-13T05:50:49.991Z,87.42
2023-01-13T05:51:50.001Z,86.91
2023-01-13T05:52:49.966Z,87.01
2023-01-13T05:53:50.155Z,87.32
2023-01-13T05:54:49.971Z,87.46
2023-01-13T05:55:49.960Z,87.46
2023-01-13T05:56:49.935Z,87.67
2023-01-13T05:57:49.922Z,87.98
2023-01-13T05:58:50.000Z,87.46
2023-01-13T05:59:49.949Z,87.77
2023-01-13T06:00:49.887Z,87.67
2023-01-13T06:01:49.887Z,87.46
2023-01-13T06:02:49.896Z,87.67
2023-01-13T06:03:49.863Z,87.67
2023-01-13T06:04:51.210Z,87.46
2023-01-13T06:05:49.826Z,87.05
2023-01-13T06:06:49.825Z,87.22
2023-01-13T06:07:49.821Z,87.12
2023-01-13T06:08:49.838Z,87.57
2023-01-13T06:09:49.791Z,86.80
2023-01-13T06:10:49.793Z,87.01
2023-01-13T06:11:49.785Z,87.01
2023-01-13T06:12:49.753Z,87.12
2023-01-13T06:13:49.758Z,87.52
2023-01-13T06:14:49.764Z,88.18
2023-01-13T06:15:50.155Z,88.29
2023-01-13T06:16:49.727Z,88.59
2023-01-13T06:17:49.717Z,88.59
2023-01-13T06:18:49.691Z,88.70
2023-01-13T06:19:49.725Z,88.76
2023-01-13T06:20:49.766Z,88.76
2023-01-13T06:21:49.989Z,89.22
2023-01-13T06:22:49.674Z,89.31
2023-01-13T06:23:49.680Z,89.42
2023-01-13T06:24:49.650Z,89.42
2023-01-13T06:25:49.643Z,89.31
2023-01-13T06:26:49.703Z,89.73
2023-01-13T06:27:49.622Z,89.62
2023-01-13T06:28:49.602Z,89.94
2023-01-13T06:29:49.644Z,90.24
2023-01-13T06:30:49.798Z,89.73
2023-01-13T06:31:49.695Z,89.94
2023-01-13T06:32:49.545Z,89.73
2023-01-13T06:33:49.682Z,90.14
2023-01-13T06:34:49.624Z,90.34
2023-01-13T06:35:49.654Z,90.14
2023-01-13T06:36:49.666Z,90.14
2023-01-13T06:37:49.525Z,90.24
2023-01-13T06:38:49.805Z,90.24
2023-01-13T06:39:49.503Z,90.24
2023-01-13T06:40:49.725Z,90.24
2023-01-13T06:41:49.465Z,89.73
2023-01-13T06:42:49.478Z,89.94
2023-01-13T06:43:49.669Z,89.52
2023-01-13T06:44:49.447Z,89.62
2023-01-13T06:45:49.470Z,89.42
2023-01-13T06:46:49.776Z,89.73
2023-01-13T06:47:49.538Z,89.83
2023-01-13T06:48:49.411Z,90.34
2023-01-13T06:49:49.420Z,90.14
2023-01-13T06:50:49.526Z,90.24
2023-01-13T06:51:49.465Z,89.83
2023-01-13T06:52:49.716Z,89.38
2023-01-13T06:53:49.419Z,89.52
2023-01-13T06:54:49.593Z,89.94
2023-01-13T06:55:49.495Z,90.14
2023-01-13T06:56:49.544Z,90.34
2023-01-13T06:57:49.616Z,90.24
2023-01-13T06:58:49.358Z,90.45
2023-01-13T06:59:50.623Z,90.45
2023-01-13T07:00:49.302Z,90.55
2023-01-13T07:01:49.442Z,90.24
2023-01-13T07:02:49.304Z,90.14
2023-01-13T07:03:49.190Z,90.24
2023-01-13T07:04:49.222Z,90.24
2023-01-13T07:05:49.202Z,90.03
2023-01-13T07:06:49.146Z,90.03
2023-01-13T07:07:49.112Z,90.14
2023-01-13T07:08:49.130Z,90.45
2023-01-13T07:09:49.122Z,90.55
2023-01-13T07:10:49.096Z,90.34
2023-01-13T07:11:49.107Z,90.59
2023-01-13T07:12:49.105Z,90.39
2023-01-13T07:13:49.439Z,90.18
2023-01-13T07:14:49.078Z,90.49
2023-01-13T07:15:49.037Z,90.18
2023-01-13T07:16:49.108Z,89.77
2023-01-13T07:17:49.022Z,89.67
2023-01-13T07:18:49.059Z,89.36
2023-01-13T07:19:48.975Z,88.64
2023-01-13T07:20:49.009Z,88.74
2023-01-13T07:21:48.968Z,88.39
2023-01-13T07:22:49.020Z,88.59
2023-01-13T07:23:48.958Z,88.08
2023-01-13T07:24:48.963Z,88.18
2023-01-13T07:25:48.927Z,88.18
2023-01-13T07:26:48.928Z,88.49
2023-01-13T07:27:48.898Z,88.59
2023-01-13T07:28:48.903Z,87.87
2023-01-13T07:29:48.951Z,88.18
2023-01-13T07:30:48.875Z,88.18
2023-01-13T07:31:50.116Z,88.12
2023-01-13T07:32:49.135Z,87.87
2023-01-13T07:33:48.844Z,87.15
2023-01-13T07:34:48.874Z,87.36
2023-01-13T07:35:48.837Z,87.87
2023-01-13T07:36:48.829Z,87.87
2023-01-13T07:37:48.856Z,86.95
2023-01-13T07:38:48.896Z,87.15
2023-01-13T07:39:48.803Z,87.05
2023-01-13T07:40:48.816Z,86.54
2023-01-13T07:41:48.837Z,86.33
2023-01-13T07:42:48.871Z,86.33
2023-01-13T07:43:48.733Z,86.64
2023-01-13T07:44:48.868Z,86.74
2023-01-13T07:45:49.145Z,86.74
2023-01-13T07:46:48.758Z,86.95
2023-01-13T07:47:48.726Z,86.85
2023-01-13T07:48:48.767Z,86.13
2023-01-13T07:49:48.776Z,86.43
2023-01-13T07:50:48.716Z,86.43
2023-01-13T07:51:48.917Z,86.02
2023-01-13T07:52:48.801Z,85.30
2023-01-13T07:53:48.663Z,85.26
2023-01-13T07:54:49.219Z,85.88
2023-01-13T07:55:49.155Z,86.02
2023-01-13T07:56:48.653Z,85.92
2023-01-13T07:57:48.747Z,85.82
2023-01-13T07:58:48.651Z,86.23
2023-01-13T07:59:48.605Z,86.13
2023-01-13T08:00:48.587Z,86.23
2023-01-13T08:01:49.082Z,86.02
2023-01-13T08:02:48.579Z,85.51
2023-01-13T08:03:48.590Z,85.92
2023-01-13T08:04:48.796Z,86.23
2023-01-13T08:05:48.840Z,85.71
2023-01-13T08:06:48.551Z,85.88
2023-01-13T08:07:49.496Z,85.71
2023-01-13T08:08:48.491Z,85.92
2023-01-13T08:09:48.471Z,85.41
2023-01-13T08:10:48.495Z,85.51
2023-01-13T08:11:48.453Z,85.51
2023-01-13T08:12:52.140Z,85.20
2023-01-13T08:13:48.628Z,85.61
2023-01-13T08:14:48.865Z,85.30
2023-01-13T08:15:48.780Z,85.30
2023-01-13T08:16:48.455Z,85.30
2023-01-13T08:17:48.442Z,85.36
2023-01-13T08:18:48.403Z,85.82
2023-01-13T08:19:48.342Z,85.30
2023-01-13T08:20:48.345Z,85.92
2023-01-13T08:21:48.347Z,85.71
2023-01-13T08:22:48.328Z,85.71
2023-01-13T08:23:48.319Z,85.41
2023-01-13T08:24:48.325Z,85.10
2023-01-13T08:25:48.353Z,85.51
2023-01-13T08:26:48.413Z,86.13
2023-01-13T08:27:48.275Z,85.82
2023-01-13T08:28:48.311Z,85.71
2023-01-13T08:29:49.062Z,85.41
2023-01-13T08:30:48.327Z,85.51
2023-01-13T08:31:48.245Z,85.10
2023-01-13T08:32:49.100Z,84.85
2023-01-13T08:33:48.207Z,84.03
2023-01-13T08:34:48.211Z,84.44
2023-01-13T08:35:48.205Z,84.75
2023-01-13T08:36:48.189Z,84.54
2023-01-13T08:37:48.186Z,84.23
2023-01-13T08:38:48.258Z,84.75
2023-01-13T08:39:48.614Z,84.23
2023-01-13T08:40:48.240Z,83.92
2023-01-13T08:41:48.407Z,83.92
2023-01-13T08:42:48.790Z,84.23
2023-01-13T08:43:48.075Z,84.44
2023-01-13T08:44:48.096Z,83.72
2023-01-13T08:45:48.115Z,83.51
2023-01-13T08:46:48.066Z,83.72
2023-01-13T08:47:48.061Z,83.72
2023-01-13T08:48:48.059Z,83.20
2023-01-13T08:49:48.047Z,83.62
2023-01-13T08:50:48.056Z,83.31
2023-01-13T08:51:48.022Z,83.92
2023-01-13T08:52:48.052Z,83.51
2023-01-13T08:53:47.985Z,83.51
2023-01-13T08:54:48.008Z,82.90
2023-01-13T08:55:48.246Z,82.65
2023-01-13T08:56:48.152Z,82.04
2023-01-13T08:57:47.969Z,82.55
2023-01-13T08:58:47.932Z,82.24
2023-01-13T08:59:47.938Z,82.18
2023-01-13T09:00:47.950Z,82.90
2023-01-13T09:01:48.029Z,82.79
2023-01-13T09:02:47.903Z,83.00
2023-01-13T09:03:47.943Z,83.20
2023-01-13T09:04:48.021Z,82.59
2023-01-13T09:05:47.885Z,81.87
2023-01-13T09:06:48.332Z,82.28
2023-01-13T09:07:47.901Z,82.79
2023-01-13T09:08:47.903Z,82.39
2023-01-13T09:09:47.829Z,82.28
2023-01-13T09:10:47.838Z,82.24
2023-01-13T09:11:48.078Z,82.59
2023-01-13T09:12:47.915Z,82.45
2023-01-13T09:13:47.802Z,82.45
2023-01-13T09:14:48.015Z,82.45
2023-01-13T09:15:47.776Z,81.93
2023-01-13T09:16:47.748Z,82.04
2023-01-13T09:17:47.734Z,82.14
2023-01-13T09:18:47.795Z,81.62
2023-01-13T09:19:47.702Z,81.42
2023-01-13T09:20:47.708Z,81.73
2023-01-13T09:21:47.682Z,81.93
2023-01-13T09:22:47.687Z,81.73
2023-01-13T09:23:47.682Z,82.24
2023-01-13T09:24:47.782Z,81.83
2023-01-13T09:25:47.674Z,81.83
2023-01-13T09:26:47.648Z,81.93
2023-01-13T09:27:47.664Z,81.73
2023-01-13T09:28:47.651Z,81.18
2023-01-13T09:29:47.675Z,81.48
2023-01-13T09:30:47.682Z,81.69
2023-01-13T09:31:47.593Z,82.00
2023-01-13T09:32:47.801Z,81.90
2023-01-13T09:33:47.555Z,81.38
2023-01-13T09:34:48.511Z,81.48
2023-01-13T09:35:47.583Z,80.87
2023-01-13T09:36:47.571Z,80.97
2023-01-13T09:37:47.529Z,80.66
2023-01-13T09:38:47.596Z,80.87
2023-01-13T09:39:47.490Z,81.04
2023-01-13T09:40:47.543Z,81.34
2023-01-13T09:41:47.480Z,81.04
2023-01-13T09:42:47.508Z,80.56
2023-01-13T09:43:47.451Z,81.07
2023-01-13T09:44:47.483Z,81.38
2023-01-13T09:45:47.472Z,82.00
2023-01-13T09:46:47.595Z,82.31
2023-01-13T09:47:47.424Z,82.10
2023-01-13T09:48:47.441Z,82.20
2023-01-13T09:49:47.382Z,82.55
2023-01-13T09:50:47.455Z,83.06
2023-01-13T09:51:47.363Z,82.96
2023-01-13T09:52:47.363Z,82.76
2023-01-13T09:53:47.376Z,82.65
2023-01-13T09:54:47.352Z,82.24
2023-01-13T09:55:47.389Z,82.86
2023-01-13T09:56:47.318Z,82.76
2023-01-13T09:57:47.354Z,82.45
2023-01-13T09:58:47.306Z,82.96
2023-01-13T09:59:47.311Z,83.23
2023-01-13T10:00:47.309Z,82.82
2023-01-13T10:01:47.271Z,83.27
2023-01-13T10:02:47.321Z,83.17
2023-01-13T10:03:47.363Z,82.45
2023-01-13T10:04:47.365Z,83.27
2023-01-13T10:05:47.229Z,83.17
2023-01-13T10:06:47.754Z,82.86
2023-01-13T10:07:48.418Z,82.76
2023-01-13T10:08:47.201Z,83.37
2023-01-13T10:09:47.227Z,82.55
2023-01-13T10:10:47.270Z,82.82
2023-01-13T10:11:47.194Z,82.62
2023-01-13T10:12:47.277Z,83.64
2023-01-13T10:13:47.142Z,83.19
2023-01-13T10:14:47.121Z,81.55
2023-01-13T10:15:47.323Z,81.24
2023-01-13T10:16:47.141Z,81.24
2023-01-13T10:17:47.092Z,81.24
2023-01-13T10:18:47.087Z,81.86
2023-01-13T10:19:47.088Z,81.62
2023-01-13T10:20:47.073Z,81.82
2023-01-13T10:21:47.053Z,81.10
2023-01-13T10:22:47.190Z,81.20
2023-01-13T10:23:47.042Z,80.18
2023-01-13T10:24:47.058Z,80.07
2023-01-13T10:25:47.125Z,80.18
2023-01-13T10:26:47.663Z,80.38
2023-01-13T10:27:46.990Z,81.10
2023-01-13T10:28:46.988Z,80.79
2023-01-13T10:29:46.966Z,81.30
2023-01-13T10:30:46.956Z,80.79
2023-01-13T10:31:47.401Z,81.20
2023-01-13T10:32:46.932Z,80.49
2023-01-13T10:33:46.912Z,80.49
2023-01-13T10:34:46.918Z,80.28
2023-01-13T10:35:46.921Z,79.93
2023-01-13T10:36:46.988Z,79.36
2023-01-13T10:37:46.890Z,79.22
2023-01-13T10:38:47.151Z,79.22
2023-01-13T10:39:46.851Z,79.32
2023-01-13T10:40:47.000Z,79.32
2023-01-13T10:41:46.856Z,79.52
2023-01-13T10:42:46.984Z,79.52
2023-01-13T10:43:46.842Z,79.52
2023-01-13T10:44:46.918Z,80.04
2023-01-13T10:45:46.827Z,80.58
2023-01-13T10:46:46.964Z,80.07
2023-01-13T10:47:46.777Z,79.97
2023-01-13T10:48:46.815Z,80.28
2023-01-13T10:49:46.747Z,80.55
2023-01-13T10:50:46.791Z,80.04
2023-01-13T10:51:46.808Z,79.93
2023-01-13T10:52:46.743Z,79.83
2023-01-13T10:53:46.774Z,80.04
2023-01-13T10:54:46.695Z,79.73
2023-01-13T10:55:46.680Z,79.93
2023-01-13T10:56:46.726Z,79.52
2023-01-13T10:57:46.665Z,79.83
2023-01-13T10:58:46.715Z,79.77
2023-01-13T10:59:46.654Z,79.56
2023-01-13T11:00:46.631Z,79.25
2023-01-13T11:01:46.779Z,79.97
2023-01-13T11:02:46.867Z,80.28
2023-01-13T11:03:46.637Z,80.49
2023-01-13T11:04:47.180Z,80.79
2023-01-13T11:05:46.612Z,81.62
2023-01-13T11:06:46.577Z,81.86
2023-01-13T11:07:46.777Z,82.17
2023-01-13T11:08:46.538Z,82.99
2023-01-13T11:09:46.545Z,82.68
2023-01-13T11:10:46.531Z,82.47
2023-01-13T11:11:46.541Z,82.68
2023-01-13T11:12:46.528Z,83.61
2023-01-13T11:13:46.730Z,82.78
2023-01-13T11:14:46.543Z,83.54
2023-01-13T11:15:46.608Z,82.71
2023-01-13T11:16:53.543Z,83.09
2023-01-13T11:17:46.478Z,82.89
2023-01-13T11:18:47.793Z,83.09
2023-01-13T11:19:46.437Z,83.19
2023-01-13T11:20:46.452Z,82.78
2023-01-13T11:21:46.484Z,83.09
2023-01-13T11:22:46.975Z,82.89
2023-01-13T11:23:46.394Z,82.89
2023-01-13T11:24:46.392Z,83.40
2023-01-13T11:25:46.377Z,83.50
2023-01-13T11:26:46.400Z,83.40
2023-01-13T11:27:46.378Z,82.99
2023-01-13T11:28:46.353Z,82.37
2023-01-13T11:29:46.331Z,82.37
2023-01-13T11:30:46.321Z,82.78
2023-01-13T11:31:46.416Z,82.78
2023-01-13T11:32:46.289Z,82.99
2023-01-13T11:33:46.277Z,83.75
2023-01-13T11:34:46.407Z,83.54
2023-01-13T11:35:46.279Z,84.36
2023-01-13T11:36:46.334Z,86.62
2023-01-13T11:37:46.262Z,87.38
2023-01-13T11:38:46.293Z,88.92
2023-01-13T11:39:46.250Z,89.07
2023-01-13T11:40:46.238Z,89.48
2023-01-13T11:41:46.240Z,90.61
2023-01-13T11:42:46.182Z,90.61
2023-01-13T11:43:46.188Z,91.06
2023-01-13T11:44:46.235Z,92.40
2023-01-13T11:45:46.237Z,91.68
2023-01-13T11:46:46.267Z,91.89
2023-01-13T11:47:46.142Z,92.82
2023-01-13T11:48:46.157Z,93.06
2023-01-13T11:49:46.137Z,93.79
2023-01-13T11:50:46.100Z,93.68
2023-01-13T11:51:46.188Z,92.76
2023-01-13T11:52:46.149Z,92.96
2023-01-13T11:53:46.105Z,93.68
2023-01-13T11:54:46.068Z,93.88
2023-01-13T11:55:46.071Z,94.81
2023-01-13T11:56:46.058Z,93.58
2023-01-13T11:57:46.056Z,93.84
2023-01-13T11:58:51.181Z,91.68
2023-01-13T11:59:46.033Z,91.27
2023-01-13T12:00:46.029Z,91.89
2023-01-13T12:01:46.055Z,91.89
2023-01-13T12:02:46.114Z,91.99
2023-01-13T12:03:45.988Z,92.20
2023-01-13T12:04:45.966Z,92.40
2023-01-13T12:05:45.984Z,91.58
2023-01-13T12:06:45.980Z,91.89
2023-01-13T12:07:45.935Z,91.78
2023-01-13T12:08:45.904Z,92.10
2023-01-13T12:09:45.901Z,91.99
2023-01-13T12:10:45.899Z,91.78
2023-01-13T12:11:45.905Z,91.78
2023-01-13T12:12:45.875Z,91.27
2023-01-13T12:13:45.889Z,91.06
2023-01-13T12:14:45.867Z,90.86
2023-01-13T12:15:45.899Z,90.45
2023-01-13T12:16:45.945Z,90.24
2023-01-13T12:17:45.848Z,89.83
2023-01-13T12:18:45.792Z,90.09
2023-01-13T12:19:45.812Z,89.48
2023-01-13T12:20:45.816Z,89.38
2023-01-13T12:21:45.766Z,89.48
2023-01-13T12:22:45.779Z,88.96
2023-01-13T12:23:45.811Z,89.28
2023-01-13T12:24:45.781Z,89.69
2023-01-13T12:25:45.741Z,89.58
2023-01-13T12:26:45.718Z,88.76
2023-01-13T12:27:47.385Z,88.86
2023-01-13T12:28:45.812Z,88.35
2023-01-13T12:29:45.812Z,88.35
2023-01-13T12:30:45.685Z,88.45
2023-01-13T12:31:45.750Z,88.04
2023-01-13T12:32:45.654Z,88.04
2023-01-13T12:33:45.666Z,87.90
2023-01-13T12:34:45.648Z,87.49
2023-01-13T12:35:45.653Z,87.79
2023-01-13T12:36:45.630Z,88.10
2023-01-13T12:37:45.811Z,87.90
2023-01-13T12:38:45.607Z,87.79
2023-01-13T12:39:45.627Z,88.72
2023-01-13T12:40:45.575Z,88.00
2023-01-13T12:41:45.695Z,88.00
2023-01-13T12:42:45.575Z,88.82
2023-01-13T12:43:45.569Z,88.41
2023-01-13T12:44:45.510Z,88.72
2023-01-13T12:45:45.550Z,88.20
2023-01-13T12:46:45.500Z,87.07
2023-01-13T12:47:45.526Z,87.18
2023-01-13T12:48:45.641Z,87.38
2023-01-13T12:49:45.525Z,87.49
2023-01-13T12:50:45.458Z,87.90
2023-01-13T12:51:45.454Z,87.69
2023-01-13T12:52:45.425Z,87.38
2023-01-13T12:53:45.496Z,87.28